Algonquin, Illinois
Current Conditions -  °F | °C
As of 11:52 PM on Monday 20 Oct 2014 (Local Time) from KDPA Reporting Station
Overcast Overcast  
Wind Chill: 51°   Ceiling: 5000
Heat Index: 51°   Visibility: 10mi
Dew Point: 41°   Wind: 8mph
Humidity: 68%   Direction: 360°N
Pressure: 30"   Gusts: NA
Location:  42.17°N, 88.29°W
Report Text: KDPA 210452Z 36007KT 10SM OVC050 11/05 A3000 RMK AO2 SLP158 T01060050
Loading
Personal Weather Stations






























Interactive Weather Map New forecast layout! Learn more

10-Day Weather Forecast

Advertisements
Track Severe Weather on mobile